sensor_id;sensor_type;location;lat;lon;timestamp;P1;durP1;ratioP1;P2;durP2;ratioP2
6642;SDS011;3357;48.050;7.800;2022-09-13T00:01:15;2.03;;;1.50;;
6642;SDS011;3357;48.050;7.800;2022-09-13T00:03:40;3.77;;;1.83;;
6642;SDS011;3357;48.050;7.800;2022-09-13T00:06:16;3.20;;;2.13;;
6642;SDS011;3357;48.050;7.800;2022-09-13T00:08:42;3.23;;;2.03;;
6642;SDS011;3357;48.050;7.800;2022-09-13T00:11:13;6.80;;;2.40;;
6642;SDS011;3357;48.050;7.800;2022-09-13T00:13:40;2.60;;;1.70;;
6642;SDS011;3357;48.050;7.800;2022-09-13T00:16:08;3.23;;;1.83;;
6642;SDS011;3357;48.050;7.800;2022-09-13T00:18:35;2.80;;;1.73;;
6642;SDS011;3357;48.050;7.800;2022-09-13T00:21:05;1.40;;;1.30;;
6642;SDS011;3357;48.050;7.800;2022-09-13T00:23:31;2.27;;;1.60;;
6642;SDS011;3357;48.050;7.800;2022-09-13T00:26:04;4.63;;;1.60;;
6642;SDS011;3357;48.050;7.800;2022-09-13T00:28:34;1.47;;;1.37;;
6642;SDS011;3357;48.050;7.800;2022-09-13T00:31:00;1.67;;;1.57;;
6642;SDS011;3357;48.050;7.800;2022-09-13T00:33:26;12.13;;;1.87;;
6642;SDS011;3357;48.050;7.800;2022-09-13T00:35:51;3.00;;;2.00;;
6642;SDS011;3357;48.050;7.800;2022-09-13T00:38:17;2.27;;;1.70;;
6642;SDS011;3357;48.050;7.800;2022-09-13T00:40:42;4.37;;;1.83;;
6642;SDS011;3357;48.050;7.800;2022-09-13T00:43:54;1.80;;;1.70;;
6642;SDS011;3357;48.050;7.800;2022-09-13T00:46:16;5.27;;;2.40;;
6642;SDS011;3357;48.050;7.800;2022-09-13T00:48:50;4.20;;;2.07;;
6642;SDS011;3357;48.050;7.800;2022-09-13T00:51:17;1.93;;;1.83;;
6642;SDS011;3357;48.050;7.800;2022-09-13T00:53:43;1.90;;;1.53;;
6642;SDS011;3357;48.050;7.800;2022-09-13T00:56:16;2.03;;;1.90;;
6642;SDS011;3357;48.050;7.800;2022-09-13T00:58:49;5.73;;;1.67;;
6642;SDS011;3357;48.050;7.800;2022-09-13T01:01:17;2.00;;;1.33;;
6642;SDS011;3357;48.050;7.800;2022-09-13T01:03:45;7.73;;;1.67;;
6642;SDS011;3357;48.050;7.800;2022-09-13T01:06:21;2.60;;;1.63;;
6642;SDS011;3357;48.050;7.800;2022-09-13T01:08:50;2.20;;;1.40;;
6642;SDS011;3357;48.050;7.800;2022-09-13T01:11:25;3.83;;;2.10;;
6642;SDS011;3357;48.050;7.800;2022-09-13T01:13:54;4.57;;;1.73;;
6642;SDS011;3357;48.050;7.800;2022-09-13T01:16:21;8.60;;;2.10;;
6642;SDS011;3357;48.050;7.800;2022-09-13T01:18:46;5.13;;;1.70;;
6642;SDS011;3357;48.050;7.800;2022-09-13T01:24:02;10.53;;;2.30;;
6642;SDS011;3357;48.050;7.800;2022-09-13T01:51:32;2.07;;;1.83;;
6642;SDS011;3357;48.050;7.800;2022-09-13T01:56:50;3.70;;;2.17;;
6642;SDS011;3357;48.050;7.800;2022-09-13T02:04:38;4.30;;;1.97;;
6642;SDS011;3357;48.050;7.800;2022-09-13T02:07:07;2.40;;;1.70;;
6642;SDS011;3357;48.050;7.800;2022-09-13T02:09:37;1.30;;;1.30;;
6642;SDS011;3357;48.050;7.800;2022-09-13T02:12:13;7.10;;;1.83;;
6642;SDS011;3357;48.050;7.800;2022-09-13T02:14:42;2.70;;;1.40;;
6642;SDS011;3357;48.050;7.800;2022-09-13T02:17:17;1.80;;;1.70;;
6642;SDS011;3357;48.050;7.800;2022-09-13T02:19:57;1.70;;;1.60;;
6642;SDS011;3357;48.050;7.800;2022-09-13T02:22:26;5.60;;;2.23;;
6642;SDS011;3357;48.050;7.800;2022-09-13T02:24:56;2.03;;;1.83;;
6642;SDS011;3357;48.050;7.800;2022-09-13T02:27:25;5.90;;;2.10;;
6642;SDS011;3357;48.050;7.800;2022-09-13T02:29:54;3.43;;;2.20;;
6642;SDS011;3357;48.050;7.800;2022-09-13T02:37:38;3.00;;;2.27;;
6642;SDS011;3357;48.050;7.800;2022-09-13T02:40:06;4.03;;;2.07;;
6642;SDS011;3357;48.050;7.800;2022-09-13T02:45:08;3.03;;;2.40;;
6642;SDS011;3357;48.050;7.800;2022-09-13T02:53:14;5.40;;;2.10;;
6642;SDS011;3357;48.050;7.800;2022-09-13T02:58:28;3.30;;;1.97;;
6642;SDS011;3357;48.050;7.800;2022-09-13T03:01:03;12.23;;;2.70;;
6642;SDS011;3357;48.050;7.800;2022-09-13T03:03:28;7.37;;;1.93;;
6642;SDS011;3357;48.050;7.800;2022-09-13T03:05:53;7.23;;;2.53;;
6642;SDS011;3357;48.050;7.800;2022-09-13T03:08:19;2.20;;;2.00;;
6642;SDS011;3357;48.050;7.800;2022-09-13T03:18:55;4.13;;;1.80;;
6642;SDS011;3357;48.050;7.800;2022-09-13T03:21:38;4.27;;;2.47;;
6642;SDS011;3357;48.050;7.800;2022-09-13T03:24:27;5.53;;;1.80;;
6642;SDS011;3357;48.050;7.800;2022-09-13T03:27:27;2.07;;;1.87;;
6642;SDS011;3357;48.050;7.800;2022-09-13T03:30:03;2.50;;;1.73;;
6642;SDS011;3357;48.050;7.800;2022-09-13T03:35:30;2.33;;;2.13;;
6642;SDS011;3357;48.050;7.800;2022-09-13T03:38:05;2.20;;;1.60;;
6642;SDS011;3357;48.050;7.800;2022-09-13T03:41:07;4.00;;;1.70;;
6642;SDS011;3357;48.050;7.800;2022-09-13T03:43:40;5.33;;;1.63;;
6642;SDS011;3357;48.050;7.800;2022-09-13T03:46:24;2.10;;;1.70;;
6642;SDS011;3357;48.050;7.800;2022-09-13T03:48:53;1.73;;;1.63;;
6642;SDS011;3357;48.050;7.800;2022-09-13T03:51:19;1.60;;;1.50;;
6642;SDS011;3357;48.050;7.800;2022-09-13T03:53:46;2.00;;;1.80;;
6642;SDS011;3357;48.050;7.800;2022-09-13T03:56:14;6.63;;;1.73;;
6642;SDS011;3357;48.050;7.800;2022-09-13T03:58:40;11.03;;;1.77;;
6642;SDS011;3357;48.050;7.800;2022-09-13T04:01:06;2.60;;;1.93;;
6642;SDS011;3357;48.050;7.800;2022-09-13T04:03:31;5.80;;;1.63;;
6642;SDS011;3357;48.050;7.800;2022-09-13T04:05:56;4.73;;;2.13;;
6642;SDS011;3357;48.050;7.800;2022-09-13T04:08:22;12.13;;;1.87;;
6642;SDS011;3357;48.050;7.800;2022-09-13T04:10:48;1.70;;;1.47;;
6642;SDS011;3357;48.050;7.800;2022-09-13T04:13:14;1.97;;;1.83;;
6642;SDS011;3357;48.050;7.800;2022-09-13T04:15:40;8.07;;;2.10;;
6642;SDS011;3357;48.050;7.800;2022-09-13T04:18:05;4.90;;;2.20;;
6642;SDS011;3357;48.050;7.800;2022-09-13T04:20:30;7.90;;;2.30;;
6642;SDS011;3357;48.050;7.800;2022-09-13T04:23:02;3.23;;;1.90;;
6642;SDS011;3357;48.050;7.800;2022-09-13T04:25:28;3.03;;;1.90;;
6642;SDS011;3357;48.050;7.800;2022-09-13T04:27:56;2.70;;;2.30;;
6642;SDS011;3357;48.050;7.800;2022-09-13T04:30:23;6.10;;;2.10;;
6642;SDS011;3357;48.050;7.800;2022-09-13T04:32:49;3.37;;;3.07;;
6642;SDS011;3357;48.050;7.800;2022-09-13T04:35:14;4.20;;;2.17;;
6642;SDS011;3357;48.050;7.800;2022-09-13T04:37:41;1.43;;;1.33;;
6642;SDS011;3357;48.050;7.800;2022-09-13T04:40:08;4.77;;;2.60;;
6642;SDS011;3357;48.050;7.800;2022-09-13T04:42:33;2.70;;;2.13;;
6642;SDS011;3357;48.050;7.800;2022-09-13T04:44:59;2.33;;;2.13;;
6642;SDS011;3357;48.050;7.800;2022-09-13T04:47:24;4.40;;;1.83;;
6642;SDS011;3357;48.050;7.800;2022-09-13T04:49:49;1.90;;;1.80;;
6642;SDS011;3357;48.050;7.800;2022-09-13T04:52:15;4.47;;;2.00;;
6642;SDS011;3357;48.050;7.800;2022-09-13T04:54:40;3.23;;;2.00;;
6642;SDS011;3357;48.050;7.800;2022-09-13T04:57:05;2.97;;;2.17;;
6642;SDS011;3357;48.050;7.800;2022-09-13T04:59:31;4.23;;;1.80;;
6642;SDS011;3357;48.050;7.800;2022-09-13T05:01:56;2.80;;;1.40;;
6642;SDS011;3357;48.050;7.800;2022-09-13T05:04:21;1.90;;;1.57;;
6642;SDS011;3357;48.050;7.800;2022-09-13T05:06:46;3.83;;;1.80;;
6642;SDS011;3357;48.050;7.800;2022-09-13T05:09:12;4.57;;;1.53;;
6642;SDS011;3357;48.050;7.800;2022-09-13T05:11:39;1.80;;;1.70;;
6642;SDS011;3357;48.050;7.800;2022-09-13T05:14:04;6.60;;;1.40;;
6642;SDS011;3357;48.050;7.800;2022-09-13T05:16:30;4.50;;;2.27;;
6642;SDS011;3357;48.050;7.800;2022-09-13T05:19:01;5.47;;;1.67;;
6642;SDS011;3357;48.050;7.800;2022-09-13T05:21:26;3.73;;;1.83;;
6642;SDS011;3357;48.050;7.800;2022-09-13T05:23:53;2.57;;;2.37;;
6642;SDS011;3357;48.050;7.800;2022-09-13T05:26:19;2.63;;;2.17;;
6642;SDS011;3357;48.050;7.800;2022-09-13T05:28:45;1.70;;;1.60;;
6642;SDS011;3357;48.050;7.800;2022-09-13T05:31:17;5.40;;;2.33;;
6642;SDS011;3357;48.050;7.800;2022-09-13T05:33:45;4.60;;;2.17;;
6642;SDS011;3357;48.050;7.800;2022-09-13T05:38:41;6.73;;;2.50;;
6642;SDS011;3357;48.050;7.800;2022-09-13T05:41:07;4.30;;;2.50;;
6642;SDS011;3357;48.050;7.800;2022-09-13T05:43:33;3.27;;;2.63;;
6642;SDS011;3357;48.050;7.800;2022-09-13T05:45:59;3.67;;;2.27;;
6642;SDS011;3357;48.050;7.800;2022-09-13T05:48:35;3.87;;;2.37;;
6642;SDS011;3357;48.050;7.800;2022-09-13T05:53:34;6.50;;;2.57;;
6642;SDS011;3357;48.050;7.800;2022-09-13T05:56:03;3.73;;;2.50;;
6642;SDS011;3357;48.050;7.800;2022-09-13T05:58:28;3.60;;;2.17;;
6642;SDS011;3357;48.050;7.800;2022-09-13T06:00:54;5.63;;;2.33;;
6642;SDS011;3357;48.050;7.800;2022-09-13T06:03:21;3.70;;;2.40;;
6642;SDS011;3357;48.050;7.800;2022-09-13T06:05:47;5.33;;;2.17;;
6642;SDS011;3357;48.050;7.800;2022-09-13T06:08:12;5.60;;;2.23;;
6642;SDS011;3357;48.050;7.800;2022-09-13T06:10:37;2.20;;;2.00;;
6642;SDS011;3357;48.050;7.800;2022-09-13T06:13:03;4.80;;;2.40;;
6642;SDS011;3357;48.050;7.800;2022-09-13T06:15:28;2.17;;;1.97;;
6642;SDS011;3357;48.050;7.800;2022-09-13T06:17:53;3.67;;;2.07;;
6642;SDS011;3357;48.050;7.800;2022-09-13T06:20:18;4.10;;;2.13;;
6642;SDS011;3357;48.050;7.800;2022-09-13T06:22:45;6.40;;;1.70;;
6642;SDS011;3357;48.050;7.800;2022-09-13T06:25:11;4.17;;;1.90;;
6642;SDS011;3357;48.050;7.800;2022-09-13T06:27:37;2.53;;;2.03;;
6642;SDS011;3357;48.050;7.800;2022-09-13T06:30:02;3.00;;;1.60;;
6642;SDS011;3357;48.050;7.800;2022-09-13T06:32:27;7.60;;;2.00;;
6642;SDS011;3357;48.050;7.800;2022-09-13T06:34:53;5.13;;;2.00;;
6642;SDS011;3357;48.050;7.800;2022-09-13T06:37:18;1.93;;;1.83;;
6642;SDS011;3357;48.050;7.800;2022-09-13T06:39:44;2.90;;;1.60;;
6642;SDS011;3357;48.050;7.800;2022-09-13T06:42:09;2.03;;;1.40;;
6642;SDS011;3357;48.050;7.800;2022-09-13T06:44:34;1.60;;;1.50;;
6642;SDS011;3357;48.050;7.800;2022-09-13T06:46:59;2.53;;;1.67;;
6642;SDS011;3357;48.050;7.800;2022-09-13T06:49:24;2.10;;;1.77;;
6642;SDS011;3357;48.050;7.800;2022-09-13T06:51:50;1.80;;;1.70;;
6642;SDS011;3357;48.050;7.800;2022-09-13T06:54:15;2.53;;;1.40;;
6642;SDS011;3357;48.050;7.800;2022-09-13T06:59:11;2.20;;;1.40;;
6642;SDS011;3357;48.050;7.800;2022-09-13T07:01:38;8.03;;;2.00;;
6642;SDS011;3357;48.050;7.800;2022-09-13T07:04:07;6.87;;;2.10;;
6642;SDS011;3357;48.050;7.800;2022-09-13T07:06:35;12.03;;;2.57;;
6642;SDS011;3357;48.050;7.800;2022-09-13T07:09:02;2.30;;;1.40;;
6642;SDS011;3357;48.050;7.800;2022-09-13T07:11:34;1.57;;;1.13;;
6642;SDS011;3357;48.050;7.800;2022-09-13T07:14:00;5.60;;;1.40;;
6642;SDS011;3357;48.050;7.800;2022-09-13T07:16:27;1.13;;;1.03;;
6642;SDS011;3357;48.050;7.800;2022-09-13T07:18:55;3.30;;;1.17;;
6642;SDS011;3357;48.050;7.800;2022-09-13T07:21:21;1.30;;;1.00;;
6642;SDS011;3357;48.050;7.800;2022-09-13T07:23:48;1.37;;;1.27;;
6642;SDS011;3357;48.050;7.800;2022-09-13T07:26:15;1.30;;;1.20;;
6642;SDS011;3357;48.050;7.800;2022-09-13T07:28:41;3.60;;;1.10;;
6642;SDS011;3357;48.050;7.800;2022-09-13T07:31:09;1.30;;;1.20;;
6642;SDS011;3357;48.050;7.800;2022-09-13T07:33:45;1.27;;;1.17;;
6642;SDS011;3357;48.050;7.800;2022-09-13T07:36:11;2.63;;;1.10;;
6642;SDS011;3357;48.050;7.800;2022-09-13T07:38:40;2.70;;;1.40;;
6642;SDS011;3357;48.050;7.800;2022-09-13T07:41:09;1.87;;;1.27;;
6642;SDS011;3357;48.050;7.800;2022-09-13T07:43:36;1.40;;;1.30;;
6642;SDS011;3357;48.050;7.800;2022-09-13T07:46:04;10.83;;;1.40;;
6642;SDS011;3357;48.050;7.800;2022-09-13T07:48:32;3.43;;;1.10;;
6642;SDS011;3357;48.050;7.800;2022-09-13T07:51:09;3.17;;;1.27;;
6642;SDS011;3357;48.050;7.800;2022-09-13T07:53:38;1.93;;;1.03;;
6642;SDS011;3357;48.050;7.800;2022-09-13T07:56:06;1.23;;;1.13;;
6642;SDS011;3357;48.050;7.800;2022-09-13T07:58:38;5.70;;;1.60;;
6642;SDS011;3357;48.050;7.800;2022-09-13T08:03:39;1.20;;;1.10;;
6642;SDS011;3357;48.050;7.800;2022-09-13T08:06:05;1.20;;;1.10;;
6642;SDS011;3357;48.050;7.800;2022-09-13T08:08:31;2.70;;;1.20;;
6642;SDS011;3357;48.050;7.800;2022-09-13T08:11:13;1.30;;;1.20;;
6642;SDS011;3357;48.050;7.800;2022-09-13T08:13:42;4.43;;;1.30;;
6642;SDS011;3357;48.050;7.800;2022-09-13T08:16:07;1.00;;;1.00;;
6642;SDS011;3357;48.050;7.800;2022-09-13T08:18:32;1.13;;;1.03;;
6642;SDS011;3357;48.050;7.800;2022-09-13T08:20:58;5.30;;;1.77;;
6642;SDS011;3357;48.050;7.800;2022-09-13T08:23:25;1.30;;;1.20;;
6642;SDS011;3357;48.050;7.800;2022-09-13T08:25:50;3.80;;;1.17;;
6642;SDS011;3357;48.050;7.800;2022-09-13T08:28:19;1.23;;;1.00;;
6642;SDS011;3357;48.050;7.800;2022-09-13T08:30:45;1.00;;;0.80;;
6642;SDS011;3357;48.050;7.800;2022-09-13T08:33:11;6.57;;;1.23;;
6642;SDS011;3357;48.050;7.800;2022-09-13T08:35:37;2.13;;;1.10;;
6642;SDS011;3357;48.050;7.800;2022-09-13T08:38:03;0.93;;;0.93;;
6642;SDS011;3357;48.050;7.800;2022-09-13T08:40:39;2.30;;;1.00;;
6642;SDS011;3357;48.050;7.800;2022-09-13T08:43:09;2.10;;;1.10;;
6642;SDS011;3357;48.050;7.800;2022-09-13T08:46:00;1.57;;;1.20;;
6642;SDS011;3357;48.050;7.800;2022-09-13T08:48:38;2.20;;;1.20;;
6642;SDS011;3357;48.050;7.800;2022-09-13T08:51:08;5.10;;;1.20;;
6642;SDS011;3357;48.050;7.800;2022-09-13T08:53:49;0.90;;;0.90;;
6642;SDS011;3357;48.050;7.800;2022-09-13T08:56:18;1.13;;;1.03;;
6642;SDS011;3357;48.050;7.800;2022-09-13T09:04:02;0.80;;;0.80;;
6642;SDS011;3357;48.050;7.800;2022-09-13T09:06:30;1.37;;;0.97;;
6642;SDS011;3357;48.050;7.800;2022-09-13T09:08:59;1.53;;;1.30;;
6642;SDS011;3357;48.050;7.800;2022-09-13T09:11:34;1.13;;;0.90;;
6642;SDS011;3357;48.050;7.800;2022-09-13T09:14:11;1.27;;;1.27;;
6642;SDS011;3357;48.050;7.800;2022-09-13T09:16:52;3.60;;;0.83;;
6642;SDS011;3357;48.050;7.800;2022-09-13T09:19:27;0.73;;;0.73;;
6642;SDS011;3357;48.050;7.800;2022-09-13T09:22:01;2.70;;;0.80;;
6642;SDS011;3357;48.050;7.800;2022-09-13T09:24:31;0.80;;;0.80;;
6642;SDS011;3357;48.050;7.800;2022-09-13T09:27:00;1.80;;;0.97;;
6642;SDS011;3357;48.050;7.800;2022-09-13T09:29:28;1.53;;;0.90;;
6642;SDS011;3357;48.050;7.800;2022-09-13T09:37:45;3.27;;;1.00;;
6642;SDS011;3357;48.050;7.800;2022-09-13T09:40:18;1.00;;;0.90;;
6642;SDS011;3357;48.050;7.800;2022-09-13T09:42:47;0.83;;;0.83;;
6642;SDS011;3357;48.050;7.800;2022-09-13T09:45:27;1.97;;;0.93;;
6642;SDS011;3357;48.050;7.800;2022-09-13T09:47:54;2.90;;;1.30;;
6642;SDS011;3357;48.050;7.800;2022-09-13T09:50:26;5.87;;;1.00;;
6642;SDS011;3357;48.050;7.800;2022-09-13T09:53:11;3.30;;;0.90;;
6642;SDS011;3357;48.050;7.800;2022-09-13T09:58:17;0.90;;;0.80;;
6642;SDS011;3357;48.050;7.800;2022-09-13T10:01:00;1.27;;;1.17;;
6642;SDS011;3357;48.050;7.800;2022-09-13T10:06:20;1.63;;;1.00;;
6642;SDS011;3357;48.050;7.800;2022-09-13T10:11:53;1.20;;;1.10;;
6642;SDS011;3357;48.050;7.800;2022-09-13T10:14:27;3.17;;;0.83;;
6642;SDS011;3357;48.050;7.800;2022-09-13T10:20:18;1.37;;;0.77;;
6642;SDS011;3357;48.050;7.800;2022-09-13T10:22:44;1.57;;;0.90;;
6642;SDS011;3357;48.050;7.800;2022-09-13T10:25:22;13.37;;;1.40;;
6642;SDS011;3357;48.050;7.800;2022-09-13T10:27:55;3.30;;;0.93;;
6642;SDS011;3357;48.050;7.800;2022-09-13T10:30:36;1.30;;;1.00;;
6642;SDS011;3357;48.050;7.800;2022-09-13T10:36:05;3.10;;;1.07;;
6642;SDS011;3357;48.050;7.800;2022-09-13T10:38:38;1.83;;;0.80;;
6642;SDS011;3357;48.050;7.800;2022-09-13T10:41:05;5.40;;;1.10;;
6642;SDS011;3357;48.050;7.800;2022-09-13T10:43:33;2.77;;;0.80;;
6642;SDS011;3357;48.050;7.800;2022-09-13T10:46:00;1.40;;;0.90;;
6642;SDS011;3357;48.050;7.800;2022-09-13T10:48:29;2.80;;;0.80;;
6642;SDS011;3357;48.050;7.800;2022-09-13T10:51:00;1.87;;;0.93;;
6642;SDS011;3357;48.050;7.800;2022-09-13T10:53:38;2.50;;;1.13;;
6642;SDS011;3357;48.050;7.800;2022-09-13T10:56:07;0.80;;;0.80;;
6642;SDS011;3357;48.050;7.800;2022-09-13T10:58:43;2.70;;;0.70;;
6642;SDS011;3357;48.050;7.800;2022-09-13T11:04:04;2.50;;;1.00;;
6642;SDS011;3357;48.050;7.800;2022-09-13T11:12:10;1.00;;;0.87;;
6642;SDS011;3357;48.050;7.800;2022-09-13T11:14:56;0.80;;;0.80;;
6642;SDS011;3357;48.050;7.800;2022-09-13T11:26:15;8.33;;;0.90;;
6642;SDS011;3357;48.050;7.800;2022-09-13T11:37:17;4.70;;;0.80;;
6642;SDS011;3357;48.050;7.800;2022-09-13T11:45:29;0.83;;;0.70;;
6642;SDS011;3357;48.050;7.800;2022-09-13T11:56:33;0.73;;;0.70;;
6642;SDS011;3357;48.050;7.800;2022-09-13T11:59:09;4.00;;;0.80;;
6642;SDS011;3357;48.050;7.800;2022-09-13T12:01:48;1.47;;;0.90;;
6642;SDS011;3357;48.050;7.800;2022-09-13T12:04:24;5.43;;;0.97;;
6642;SDS011;3357;48.050;7.800;2022-09-13T12:06:54;2.70;;;1.20;;
6642;SDS011;3357;48.050;7.800;2022-09-13T12:09:25;1.33;;;0.90;;
6642;SDS011;3357;48.050;7.800;2022-09-13T12:11:57;0.87;;;0.87;;
6642;SDS011;3357;48.050;7.800;2022-09-13T12:14:36;3.30;;;1.00;;
6642;SDS011;3357;48.050;7.800;2022-09-13T12:17:10;1.00;;;0.90;;
6642;SDS011;3357;48.050;7.800;2022-09-13T12:19:47;1.37;;;0.90;;
6642;SDS011;3357;48.050;7.800;2022-09-13T12:22:16;5.90;;;0.80;;
6642;SDS011;3357;48.050;7.800;2022-09-13T12:25:43;1.20;;;1.10;;
6642;SDS011;3357;48.050;7.800;2022-09-13T12:28:06;8.93;;;1.50;;
6642;SDS011;3357;48.050;7.800;2022-09-13T12:30:48;5.50;;;1.20;;
6642;SDS011;3357;48.050;7.800;2022-09-13T12:33:18;2.00;;;1.00;;
6642;SDS011;3357;48.050;7.800;2022-09-13T12:35:53;2.20;;;1.00;;
6642;SDS011;3357;48.050;7.800;2022-09-13T12:47:09;3.07;;;1.30;;
6642;SDS011;3357;48.050;7.800;2022-09-13T13:00:37;4.47;;;1.27;;
6642;SDS011;3357;48.050;7.800;2022-09-13T13:03:13;4.10;;;1.10;;
6642;SDS011;3357;48.050;7.800;2022-09-13T13:05:45;1.43;;;1.33;;
6642;SDS011;3357;48.050;7.800;2022-09-13T13:10:44;3.10;;;1.10;;
6642;SDS011;3357;48.050;7.800;2022-09-13T13:13:13;1.20;;;1.10;;
6642;SDS011;3357;48.050;7.800;2022-09-13T13:18:57;1.13;;;1.03;;
6642;SDS011;3357;48.050;7.800;2022-09-13T13:21:31;1.57;;;1.20;;
6642;SDS011;3357;48.050;7.800;2022-09-13T13:29:24;1.90;;;1.50;;
6642;SDS011;3357;48.050;7.800;2022-09-13T13:34:42;1.47;;;1.30;;
6642;SDS011;3357;48.050;7.800;2022-09-13T13:42:39;33.53;;;1.50;;
6642;SDS011;3357;48.050;7.800;2022-09-13T13:47:53;1.57;;;1.20;;
6642;SDS011;3357;48.050;7.800;2022-09-13T13:50:20;40.10;;;3.70;;
6642;SDS011;3357;48.050;7.800;2022-09-13T13:58:07;70.73;;;4.57;;
6642;SDS011;3357;48.050;7.800;2022-09-13T14:00:36;5.10;;;1.30;;
6642;SDS011;3357;48.050;7.800;2022-09-13T14:03:17;2.43;;;1.10;;
6642;SDS011;3357;48.050;7.800;2022-09-13T14:08:46;1.03;;;0.80;;
6642;SDS011;3357;48.050;7.800;2022-09-13T14:20:14;2.20;;;1.00;;
6642;SDS011;3357;48.050;7.800;2022-09-13T14:22:41;5.33;;;1.20;;
6642;SDS011;3357;48.050;7.800;2022-09-13T14:27:55;1.87;;;1.10;;
6642;SDS011;3357;48.050;7.800;2022-09-13T14:30:57;3.33;;;1.10;;
6642;SDS011;3357;48.050;7.800;2022-09-13T14:33:21;2.53;;;1.00;;
6642;SDS011;3357;48.050;7.800;2022-09-13T14:38:27;5.33;;;1.03;;
6642;SDS011;3357;48.050;7.800;2022-09-13T14:41:14;0.97;;;0.97;;
6642;SDS011;3357;48.050;7.800;2022-09-13T14:43:42;0.90;;;0.90;;
6642;SDS011;3357;48.050;7.800;2022-09-13T14:46:09;2.50;;;1.00;;
6642;SDS011;3357;48.050;7.800;2022-09-13T14:53:46;1.20;;;0.97;;
6642;SDS011;3357;48.050;7.800;2022-09-13T14:58:52;10.37;;;2.27;;
6642;SDS011;3357;48.050;7.800;2022-09-13T15:01:21;3.33;;;1.43;;
6642;SDS011;3357;48.050;7.800;2022-09-13T15:03:53;3.17;;;1.50;;
6642;SDS011;3357;48.050;7.800;2022-09-13T15:06:23;3.33;;;1.50;;
6642;SDS011;3357;48.050;7.800;2022-09-13T15:08:51;5.13;;;1.03;;
6642;SDS011;3357;48.050;7.800;2022-09-13T15:11:28;4.33;;;1.40;;
6642;SDS011;3357;48.050;7.800;2022-09-13T15:16:45;2.80;;;1.80;;
6642;SDS011;3357;48.050;7.800;2022-09-13T15:19:41;3.87;;;1.97;;
6642;SDS011;3357;48.050;7.800;2022-09-13T15:22:15;2.17;;;1.97;;
6642;SDS011;3357;48.050;7.800;2022-09-13T15:24:51;1.97;;;1.40;;
6642;SDS011;3357;48.050;7.800;2022-09-13T15:27:27;2.10;;;1.07;;
6642;SDS011;3357;48.050;7.800;2022-09-13T15:29:59;2.57;;;1.40;;
6642;SDS011;3357;48.050;7.800;2022-09-13T15:32:32;6.53;;;1.30;;
6642;SDS011;3357;48.050;7.800;2022-09-13T15:34:59;1.80;;;1.70;;
6642;SDS011;3357;48.050;7.800;2022-09-13T15:37:44;1.40;;;1.30;;
6642;SDS011;3357;48.050;7.800;2022-09-13T15:40:17;1.10;;;1.00;;
6642;SDS011;3357;48.050;7.800;2022-09-13T15:42:48;9.13;;;1.47;;
6642;SDS011;3357;48.050;7.800;2022-09-13T15:45:16;5.13;;;2.00;;
6642;SDS011;3357;48.050;7.800;2022-09-13T15:47:46;5.50;;;1.43;;
6642;SDS011;3357;48.050;7.800;2022-09-13T15:50:20;2.60;;;1.30;;
6642;SDS011;3357;48.050;7.800;2022-09-13T15:52:49;6.53;;;1.00;;
6642;SDS011;3357;48.050;7.800;2022-09-13T15:55:14;1.40;;;1.30;;
6642;SDS011;3357;48.050;7.800;2022-09-13T15:57:39;2.40;;;1.20;;
6642;SDS011;3357;48.050;7.800;2022-09-13T16:00:13;3.27;;;1.20;;
6642;SDS011;3357;48.050;7.800;2022-09-13T16:02:48;1.30;;;1.20;;
6642;SDS011;3357;48.050;7.800;2022-09-13T16:05:13;4.57;;;1.30;;
6642;SDS011;3357;48.050;7.800;2022-09-13T16:07:39;1.87;;;1.23;;
6642;SDS011;3357;48.050;7.800;2022-09-13T16:10:12;1.60;;;1.27;;
6642;SDS011;3357;48.050;7.800;2022-09-13T16:12:43;4.90;;;1.10;;
6642;SDS011;3357;48.050;7.800;2022-09-13T16:15:09;4.30;;;1.60;;
6642;SDS011;3357;48.050;7.800;2022-09-13T16:17:34;1.70;;;1.03;;
6642;SDS011;3357;48.050;7.800;2022-09-13T16:20:02;1.97;;;1.30;;
6642;SDS011;3357;48.050;7.800;2022-09-13T16:22:30;3.43;;;1.40;;
6642;SDS011;3357;48.050;7.800;2022-09-13T16:24:55;5.47;;;1.20;;
6642;SDS011;3357;48.050;7.800;2022-09-13T16:27:21;0.80;;;0.80;;
6642;SDS011;3357;48.050;7.800;2022-09-13T16:29:49;0.97;;;0.90;;
6642;SDS011;3357;48.050;7.800;2022-09-13T16:32:14;1.00;;;0.90;;
6642;SDS011;3357;48.050;7.800;2022-09-13T16:34:39;3.63;;;1.03;;
6642;SDS011;3357;48.050;7.800;2022-09-13T16:37:05;2.10;;;1.40;;
6642;SDS011;3357;48.050;7.800;2022-09-13T16:39:30;1.20;;;1.10;;
6642;SDS011;3357;48.050;7.800;2022-09-13T16:41:55;4.70;;;1.17;;
6642;SDS011;3357;48.050;7.800;2022-09-13T16:44:21;1.00;;;1.00;;
6642;SDS011;3357;48.050;7.800;2022-09-13T16:46:46;1.23;;;1.10;;
6642;SDS011;3357;48.050;7.800;2022-09-13T16:49:11;4.97;;;1.43;;
6642;SDS011;3357;48.050;7.800;2022-09-13T16:51:37;0.90;;;0.90;;
6642;SDS011;3357;48.050;7.800;2022-09-13T16:54:02;1.73;;;1.10;;
6642;SDS011;3357;48.050;7.800;2022-09-13T16:56:28;3.30;;;1.50;;
6642;SDS011;3357;48.050;7.800;2022-09-13T16:58:54;2.57;;;1.07;;
6642;SDS011;3357;48.050;7.800;2022-09-13T17:01:22;3.80;;;1.40;;
6642;SDS011;3357;48.050;7.800;2022-09-13T17:03:48;2.70;;;1.73;;
6642;SDS011;3357;48.050;7.800;2022-09-13T17:06:15;4.83;;;1.60;;
6642;SDS011;3357;48.050;7.800;2022-09-13T17:08:45;1.40;;;1.30;;
6642;SDS011;3357;48.050;7.800;2022-09-13T17:11:14;6.43;;;1.40;;
6642;SDS011;3357;48.050;7.800;2022-09-13T17:13:42;1.63;;;1.43;;
6642;SDS011;3357;48.050;7.800;2022-09-13T17:16:18;1.93;;;1.20;;
6642;SDS011;3357;48.050;7.800;2022-09-13T17:19:06;1.87;;;1.50;;
6642;SDS011;3357;48.050;7.800;2022-09-13T17:21:33;1.03;;;1.00;;
6642;SDS011;3357;48.050;7.800;2022-09-13T17:24:00;2.40;;;1.30;;
6642;SDS011;3357;48.050;7.800;2022-09-13T17:26:30;6.43;;;1.20;;
6642;SDS011;3357;48.050;7.800;2022-09-13T17:28:56;3.33;;;1.27;;
6642;SDS011;3357;48.050;7.800;2022-09-13T17:31:21;1.87;;;1.23;;
6642;SDS011;3357;48.050;7.800;2022-09-13T17:33:46;5.00;;;1.13;;
6642;SDS011;3357;48.050;7.800;2022-09-13T17:36:12;2.97;;;1.10;;
6642;SDS011;3357;48.050;7.800;2022-09-13T17:38:38;1.87;;;1.30;;
6642;SDS011;3357;48.050;7.800;2022-09-13T17:41:11;2.50;;;1.50;;
6642;SDS011;3357;48.050;7.800;2022-09-13T17:43:41;4.40;;;1.70;;
6642;SDS011;3357;48.050;7.800;2022-09-13T17:46:13;1.40;;;1.30;;
6642;SDS011;3357;48.050;7.800;2022-09-13T17:48:45;2.37;;;1.87;;
6642;SDS011;3357;48.050;7.800;2022-09-13T17:51:15;2.10;;;1.87;;
6642;SDS011;3357;48.050;7.800;2022-09-13T17:53:47;2.80;;;1.80;;
6642;SDS011;3357;48.050;7.800;2022-09-13T17:56:17;3.50;;;1.97;;
6642;SDS011;3357;48.050;7.800;2022-09-13T17:58:44;1.87;;;1.73;;
6642;SDS011;3357;48.050;7.800;2022-09-13T18:01:12;2.40;;;2.30;;
6642;SDS011;3357;48.050;7.800;2022-09-13T18:03:37;3.67;;;1.77;;
6642;SDS011;3357;48.050;7.800;2022-09-13T18:06:04;5.37;;;3.00;;
6642;SDS011;3357;48.050;7.800;2022-09-13T18:08:31;7.03;;;3.00;;
6642;SDS011;3357;48.050;7.800;2022-09-13T18:11:05;2.10;;;1.70;;
6642;SDS011;3357;48.050;7.800;2022-09-13T18:13:34;10.30;;;5.53;;
6642;SDS011;3357;48.050;7.800;2022-09-13T18:16:05;5.73;;;5.13;;
6642;SDS011;3357;48.050;7.800;2022-09-13T18:18:32;3.20;;;2.50;;
6642;SDS011;3357;48.050;7.800;2022-09-13T18:20:58;2.80;;;2.40;;
6642;SDS011;3357;48.050;7.800;2022-09-13T18:23:24;3.03;;;2.13;;
6642;SDS011;3357;48.050;7.800;2022-09-13T18:26:03;5.43;;;1.90;;
6642;SDS011;3357;48.050;7.800;2022-09-13T18:28:31;7.63;;;2.03;;
6642;SDS011;3357;48.050;7.800;2022-09-13T18:30:57;3.00;;;2.40;;
6642;SDS011;3357;48.050;7.800;2022-09-13T18:33:24;5.90;;;2.33;;
6642;SDS011;3357;48.050;7.800;2022-09-13T18:36:09;2.33;;;1.80;;
6642;SDS011;3357;48.050;7.800;2022-09-13T18:38:41;3.50;;;2.40;;
6642;SDS011;3357;48.050;7.800;2022-09-13T18:41:11;5.93;;;2.47;;
6642;SDS011;3357;48.050;7.800;2022-09-13T18:43:40;3.50;;;2.70;;
6642;SDS011;3357;48.050;7.800;2022-09-13T18:46:10;3.90;;;2.23;;
6642;SDS011;3357;48.050;7.800;2022-09-13T18:48:38;3.97;;;2.20;;
6642;SDS011;3357;48.050;7.800;2022-09-13T18:51:04;4.20;;;2.50;;
6642;SDS011;3357;48.050;7.800;2022-09-13T18:53:33;3.13;;;2.27;;
6642;SDS011;3357;48.050;7.800;2022-09-13T18:55:59;5.67;;;2.30;;
6642;SDS011;3357;48.050;7.800;2022-09-13T18:58:28;3.63;;;2.57;;
6642;SDS011;3357;48.050;7.800;2022-09-13T19:01:29;4.37;;;2.23;;
6642;SDS011;3357;48.050;7.800;2022-09-13T19:03:51;2.00;;;1.90;;
6642;SDS011;3357;48.050;7.800;2022-09-13T19:06:19;3.33;;;2.70;;